createdAt,value
2022-08-02T00:00:55.631Z,17.50
2022-08-02T00:03:23.724Z,17.40
2022-08-02T00:05:53.454Z,17.40
2022-08-02T00:08:21.493Z,17.40
2022-08-02T00:10:48.322Z,17.40
2022-08-02T00:13:15.060Z,17.40
2022-08-02T00:15:41.798Z,17.30
2022-08-02T00:18:08.553Z,17.20
2022-08-02T00:20:35.350Z,17.20
2022-08-02T00:23:02.063Z,17.30
2022-08-02T00:25:28.784Z,17.30
2022-08-02T00:27:55.561Z,17.50
2022-08-02T00:30:22.272Z,17.60
2022-08-02T00:32:48.972Z,17.70
2022-08-02T00:35:15.828Z,17.80
2022-08-02T00:37:42.599Z,17.90
2022-08-02T00:40:09.775Z,17.80
2022-08-02T00:42:36.519Z,17.80
2022-08-02T00:45:03.489Z,17.80
2022-08-02T00:47:30.231Z,17.80
2022-08-02T00:49:56.975Z,17.90
2022-08-02T00:52:24.135Z,18.00
2022-08-02T00:54:50.886Z,18.00
2022-08-02T00:57:17.578Z,18.10
2022-08-02T00:59:44.427Z,18.10
2022-08-02T01:02:11.576Z,18.10
2022-08-02T01:04:38.619Z,18.00
2022-08-02T01:07:12.549Z,17.90
2022-08-02T01:09:44.480Z,17.90
2022-08-02T01:12:11.965Z,18.00
2022-08-02T01:14:40.747Z,18.10
2022-08-02T01:17:10.544Z,18.00
2022-08-02T01:19:54.211Z,18.00
2022-08-02T01:23:00.653Z,18.00
2022-08-02T01:25:38.756Z,17.90
2022-08-02T01:28:08.488Z,18.10
2022-08-02T01:30:36.073Z,18.00
2022-08-02T01:33:04.678Z,17.90
2022-08-02T01:35:47.310Z,17.90
2022-08-02T01:38:23.844Z,18.00
2022-08-02T01:40:51.555Z,18.10
2022-08-02T01:43:19.419Z,18.20
2022-08-02T01:45:46.191Z,18.20
2022-08-02T01:48:13.260Z,18.20
2022-08-02T01:50:41.229Z,18.20
2022-08-02T01:53:09.272Z,18.20
2022-08-02T01:55:58.018Z,18.20
2022-08-02T01:58:31.029Z,18.20
2022-08-02T02:00:58.618Z,18.10
2022-08-02T02:03:26.379Z,18.10
2022-08-02T02:05:54.425Z,18.10
2022-08-02T02:08:34.072Z,18.00
2022-08-02T02:12:11.896Z,18.00
2022-08-02T02:13:49.030Z,18.00
2022-08-02T02:16:15.971Z,18.10
2022-08-02T02:18:43.938Z,18.20
2022-08-02T02:21:12.007Z,18.10
2022-08-02T02:23:38.801Z,17.80
2022-08-02T02:26:08.114Z,17.80
2022-08-02T02:28:37.575Z,17.80
2022-08-02T02:31:09.512Z,18.00
2022-08-02T02:33:39.055Z,17.90
2022-08-02T02:36:07.205Z,17.60
2022-08-02T02:38:34.200Z,17.70
2022-08-02T02:41:01.978Z,17.80
2022-08-02T02:43:30.358Z,17.80
2022-08-02T02:45:57.846Z,17.60
2022-08-02T02:48:25.729Z,17.70
2022-08-02T02:50:53.615Z,17.80
2022-08-02T02:53:20.776Z,17.80
2022-08-02T02:56:02.053Z,17.70
2022-08-02T02:58:30.101Z,17.80
2022-08-02T03:01:15.643Z,17.70
2022-08-02T03:03:44.083Z,17.70
2022-08-02T03:06:15.707Z,17.80
2022-08-02T03:08:43.238Z,17.80
2022-08-02T03:11:10.267Z,17.90
2022-08-02T03:13:37.717Z,17.80
2022-08-02T03:16:04.643Z,17.60
2022-08-02T03:18:31.699Z,17.60
2022-08-02T03:20:59.343Z,17.60
2022-08-02T03:23:26.084Z,17.70
2022-08-02T03:25:52.803Z,17.80
2022-08-02T03:28:19.545Z,17.80
2022-08-02T03:30:46.440Z,17.80
2022-08-02T03:33:13.231Z,17.80
2022-08-02T03:35:41.411Z,17.80
2022-08-02T03:38:08.572Z,17.70
2022-08-02T03:40:36.445Z,17.60
2022-08-02T03:43:04.040Z,17.50
2022-08-02T03:45:31.421Z,17.60
2022-08-02T03:47:58.998Z,17.60
2022-08-02T03:50:26.628Z,17.60
2022-08-02T03:52:53.860Z,17.50
2022-08-02T03:55:20.603Z,17.50
2022-08-02T03:57:47.455Z,17.50
2022-08-02T04:00:18.173Z,17.60
2022-08-02T04:02:44.897Z,17.60
2022-08-02T04:05:11.718Z,17.80
2022-08-02T04:08:32.591Z,17.80
2022-08-02T04:10:25.900Z,17.80
2022-08-02T04:12:52.859Z,17.80
2022-08-02T04:15:19.608Z,17.80
2022-08-02T04:17:49.542Z,17.80
2022-08-02T04:20:19.044Z,17.70
2022-08-02T04:22:47.951Z,17.70
2022-08-02T04:25:17.305Z,17.70
2022-08-02T04:27:50.134Z,17.70
2022-08-02T04:30:22.574Z,17.80
2022-08-02T04:32:49.388Z,17.80
2022-08-02T04:35:19.841Z,17.80
2022-08-02T04:38:09.198Z,17.70
2022-08-02T04:40:34.300Z,17.80
2022-08-02T04:43:01.080Z,17.90
2022-08-02T04:45:29.515Z,18.00
2022-08-02T04:48:06.572Z,17.80
2022-08-02T04:50:33.851Z,17.80
2022-08-02T04:53:00.581Z,17.80
2022-08-02T04:55:29.302Z,17.90
2022-08-02T04:57:57.502Z,18.00
2022-08-02T05:00:25.272Z,18.00
2022-08-02T05:02:52.678Z,18.10
2022-08-02T05:05:19.523Z,18.10
2022-08-02T05:07:46.320Z,18.10
2022-08-02T05:10:13.146Z,18.20
2022-08-02T05:12:40.220Z,18.30
2022-08-02T05:15:07.322Z,18.30
2022-08-02T05:17:39.419Z,18.30
2022-08-02T05:20:14.777Z,18.30
2022-08-02T05:22:42.052Z,18.30
2022-08-02T05:25:09.127Z,18.30
2022-08-02T05:27:35.838Z,18.40
2022-08-02T05:30:03.237Z,18.50
2022-08-02T05:32:30.155Z,18.60
2022-08-02T05:34:56.947Z,18.70
2022-08-02T05:37:23.798Z,18.70
2022-08-02T05:39:55.193Z,18.80
2022-08-02T05:42:23.489Z,18.70
2022-08-02T05:44:50.345Z,18.70
2022-08-02T05:47:17.136Z,18.80
2022-08-02T05:49:43.894Z,18.90
2022-08-02T05:52:15.153Z,19.00
2022-08-02T05:54:44.872Z,18.90
2022-08-02T05:57:15.347Z,18.90
2022-08-02T05:59:54.098Z,19.10
2022-08-02T06:02:37.036Z,19.30
2022-08-02T06:05:10.008Z,19.50
2022-08-02T06:07:37.465Z,19.70
2022-08-02T06:10:05.222Z,19.80
2022-08-02T06:12:33.509Z,19.90
2022-08-02T06:15:01.583Z,19.90
2022-08-02T06:17:28.327Z,19.90
2022-08-02T06:19:56.619Z,20.00
2022-08-02T06:22:32.033Z,20.10
2022-08-02T06:25:03.608Z,20.30
2022-08-02T06:27:30.347Z,20.40
2022-08-02T06:29:57.971Z,20.40
2022-08-02T06:32:26.135Z,20.50
2022-08-02T06:34:52.827Z,20.50
2022-08-02T06:37:41.338Z,20.50
2022-08-02T06:40:13.735Z,20.50
2022-08-02T06:42:44.979Z,20.40
2022-08-02T06:45:11.776Z,20.50
2022-08-02T06:47:38.525Z,20.60
2022-08-02T06:50:05.675Z,20.70
2022-08-02T06:52:32.679Z,20.90
2022-08-02T06:54:59.876Z,20.90
2022-08-02T06:57:27.439Z,21.10
2022-08-02T06:59:54.221Z,21.20
2022-08-02T07:02:21.111Z,21.50
2022-08-02T07:04:47.806Z,21.80
2022-08-02T07:07:14.635Z,22.00
2022-08-02T07:10:00.387Z,22.10
2022-08-02T07:12:31.859Z,22.10
2022-08-02T07:14:59.752Z,22.50
2022-08-02T07:17:27.007Z,22.90
2022-08-02T07:19:53.763Z,23.10
2022-08-02T07:22:23.247Z,23.40
2022-08-02T07:24:50.790Z,23.30
2022-08-02T07:27:17.495Z,23.40
2022-08-02T07:29:46.430Z,23.60
2022-08-02T07:32:21.579Z,23.50
2022-08-02T07:34:50.943Z,23.30
2022-08-02T07:37:51.092Z,23.30
2022-08-02T07:40:12.488Z,23.00
2022-08-02T07:42:40.415Z,22.90
2022-08-02T07:45:07.712Z,22.80
2022-08-02T07:47:37.452Z,22.80
2022-08-02T07:50:04.610Z,22.80
2022-08-02T07:52:31.352Z,23.10
2022-08-02T07:54:58.060Z,23.40
2022-08-02T07:57:25.245Z,23.50
2022-08-02T07:59:52.237Z,23.60
2022-08-02T08:02:18.957Z,23.40
2022-08-02T08:04:45.683Z,23.60
2022-08-02T08:07:12.409Z,23.90
2022-08-02T08:09:42.233Z,23.90
2022-08-02T08:12:10.138Z,24.00
2022-08-02T08:14:38.072Z,24.10
2022-08-02T08:17:05.884Z,24.10
2022-08-02T08:19:50.002Z,24.10
2022-08-02T08:22:18.697Z,24.10
2022-08-02T08:24:45.481Z,24.30
2022-08-02T08:27:14.825Z,24.30
2022-08-02T08:29:42.527Z,24.40
2022-08-02T08:32:12.826Z,24.00
2022-08-02T08:34:42.686Z,24.30
2022-08-02T08:37:09.451Z,24.60
2022-08-02T08:39:56.343Z,24.40
2022-08-02T08:42:28.616Z,24.60
2022-08-02T08:44:56.721Z,24.50
2022-08-02T08:47:27.613Z,24.30
2022-08-02T08:50:03.212Z,24.30
2022-08-02T08:52:31.729Z,24.40
2022-08-02T08:54:59.290Z,24.70
2022-08-02T08:57:29.629Z,24.90
2022-08-02T08:59:56.663Z,24.90
2022-08-02T09:02:27.721Z,25.10
2022-08-02T09:04:55.468Z,24.90
2022-08-02T09:07:22.986Z,25.00
2022-08-02T09:09:49.897Z,25.10
2022-08-02T09:12:17.920Z,25.10
2022-08-02T09:14:46.572Z,24.80
2022-08-02T09:17:17.657Z,24.80
2022-08-02T09:19:46.186Z,24.40
2022-08-02T09:22:15.106Z,24.50
2022-08-02T09:24:42.831Z,24.80
2022-08-02T09:27:13.280Z,24.60
2022-08-02T09:30:05.877Z,24.60
2022-08-02T09:32:29.692Z,24.70
2022-08-02T09:34:56.833Z,24.60
2022-08-02T09:37:23.728Z,24.40
2022-08-02T09:39:50.658Z,24.30
2022-08-02T09:42:30.754Z,24.50
2022-08-02T09:45:01.938Z,25.00
2022-08-02T09:47:30.997Z,25.10
2022-08-02T09:49:58.570Z,25.30
2022-08-02T09:52:37.208Z,24.70
2022-08-02T09:55:11.477Z,24.60
2022-08-02T09:57:38.700Z,24.50
2022-08-02T10:00:08.396Z,24.40
2022-08-02T10:03:01.771Z,24.60
2022-08-02T10:05:32.263Z,24.60
2022-08-02T10:08:07.703Z,24.60
2022-08-02T10:10:34.551Z,24.70
2022-08-02T10:13:03.064Z,24.70
2022-08-02T10:15:29.853Z,24.70
2022-08-02T10:17:56.565Z,24.90
2022-08-02T10:20:23.855Z,24.90
2022-08-02T10:22:51.485Z,24.90
2022-08-02T10:25:18.906Z,24.80
2022-08-02T10:28:04.689Z,24.70
2022-08-02T10:30:33.055Z,24.90
2022-08-02T10:33:01.070Z,25.20
2022-08-02T10:35:28.312Z,25.50
2022-08-02T10:37:57.069Z,25.60
2022-08-02T10:40:23.982Z,25.60
2022-08-02T10:42:51.724Z,26.10
2022-08-02T10:45:19.713Z,25.80
2022-08-02T10:48:03.871Z,26.10
2022-08-02T10:50:45.849Z,25.70
2022-08-02T10:53:23.874Z,25.70
2022-08-02T10:55:50.901Z,25.50
2022-08-02T10:58:26.249Z,25.20
2022-08-02T11:00:57.624Z,25.10
2022-08-02T11:03:41.054Z,24.80
2022-08-02T11:06:07.874Z,24.70
2022-08-02T11:08:34.673Z,24.70
2022-08-02T11:11:02.206Z,24.70
2022-08-02T11:13:30.225Z,24.80
2022-08-02T11:16:09.099Z,24.70
2022-08-02T11:18:44.290Z,24.90
2022-08-02T11:21:22.061Z,24.90
2022-08-02T11:23:48.976Z,24.90
2022-08-02T11:26:31.141Z,24.80
2022-08-02T11:28:58.555Z,24.70
2022-08-02T11:31:26.053Z,24.70
2022-08-02T11:33:52.899Z,24.70
2022-08-02T11:36:19.798Z,24.50
2022-08-02T11:38:49.843Z,24.30
2022-08-02T11:41:47.489Z,24.30
2022-08-02T11:44:09.922Z,24.30
2022-08-02T11:46:37.061Z,24.30
2022-08-02T11:49:14.615Z,24.20
2022-08-02T11:51:54.135Z,24.30
2022-08-02T11:54:27.151Z,24.50
2022-08-02T11:56:54.093Z,24.90
2022-08-02T11:59:20.830Z,25.10
2022-08-02T12:01:47.653Z,25.20
2022-08-02T12:04:19.278Z,25.20
2022-08-02T12:06:59.256Z,25.30
2022-08-02T12:09:27.626Z,25.80
2022-08-02T12:11:55.086Z,26.00
2022-08-02T12:14:22.366Z,26.00
2022-08-02T12:17:08.168Z,25.90
2022-08-02T12:19:35.028Z,25.60
2022-08-02T12:22:24.486Z,25.50
2022-08-02T12:24:55.828Z,25.40
2022-08-02T12:27:31.663Z,25.40
2022-08-02T12:30:27.503Z,25.40
2022-08-02T12:33:07.846Z,25.50
2022-08-02T12:35:40.132Z,26.40
2022-08-02T12:38:11.124Z,26.70
2022-08-02T12:40:37.947Z,27.00
2022-08-02T12:43:05.612Z,26.80
2022-08-02T12:45:38.570Z,26.60
2022-08-02T12:48:08.131Z,26.50
2022-08-02T12:50:37.227Z,26.30
2022-08-02T12:53:05.247Z,26.40
2022-08-02T12:55:59.400Z,26.60
2022-08-02T12:58:22.714Z,26.40
2022-08-02T13:00:57.094Z,26.20
2022-08-02T13:04:09.184Z,26.00
2022-08-02T13:06:32.285Z,26.40
2022-08-02T13:08:58.702Z,26.50
2022-08-02T13:11:25.774Z,26.40
2022-08-02T13:13:52.461Z,26.60
2022-08-02T13:16:19.269Z,26.70
2022-08-02T13:18:58.308Z,26.80
2022-08-02T13:21:40.354Z,26.70
2022-08-02T13:24:33.263Z,26.30
2022-08-02T13:27:04.635Z,26.70
2022-08-02T13:29:36.269Z,26.90
2022-08-02T13:32:02.980Z,26.80
2022-08-02T13:34:29.758Z,26.80
2022-08-02T13:36:56.469Z,26.50
2022-08-02T13:39:23.180Z,26.10
2022-08-02T13:41:49.989Z,25.90
2022-08-02T13:44:16.831Z,25.60
2022-08-02T13:46:45.670Z,25.50
2022-08-02T13:49:19.394Z,25.40
2022-08-02T13:51:47.578Z,25.30
2022-08-02T13:54:14.811Z,25.30
2022-08-02T13:56:41.542Z,25.30
2022-08-02T13:59:54.110Z,25.20
2022-08-02T14:01:56.604Z,25.20
2022-08-02T14:04:23.878Z,25.10
2022-08-02T14:06:50.684Z,24.90
2022-08-02T14:09:17.695Z,24.90
2022-08-02T14:11:45.014Z,24.80
2022-08-02T14:14:16.031Z,24.90
2022-08-02T14:16:46.971Z,24.80
2022-08-02T14:19:15.677Z,24.60
2022-08-02T14:21:47.929Z,24.50
2022-08-02T14:24:16.355Z,24.10
2022-08-02T14:26:43.358Z,23.80
2022-08-02T14:29:10.134Z,23.90
2022-08-02T14:31:41.658Z,24.10
2022-08-02T14:34:10.321Z,24.80
2022-08-02T14:36:37.416Z,24.60
2022-08-02T14:39:04.162Z,24.50
2022-08-02T14:41:33.735Z,24.70
2022-08-02T14:44:07.884Z,24.50
2022-08-02T14:46:36.979Z,24.70
2022-08-02T14:49:04.261Z,24.60
2022-08-02T14:51:31.733Z,24.30
2022-08-02T14:54:02.955Z,24.00
2022-08-02T14:56:30.265Z,23.90
2022-08-02T14:58:57.239Z,24.10
2022-08-02T15:01:25.841Z,24.20
2022-08-02T15:03:53.445Z,24.20
2022-08-02T15:06:20.572Z,24.10
2022-08-02T15:08:47.331Z,24.20
2022-08-02T15:11:14.146Z,24.00
2022-08-02T15:13:42.750Z,24.10
2022-08-02T15:16:10.050Z,24.10
2022-08-02T15:18:36.759Z,24.10
2022-08-02T15:21:07.986Z,24.30
2022-08-02T15:23:50.636Z,24.50
2022-08-02T15:26:17.976Z,24.50
2022-08-02T15:28:44.689Z,24.30
2022-08-02T15:31:11.471Z,24.30
2022-08-02T15:33:50.088Z,24.70
2022-08-02T15:36:17.152Z,24.70
2022-08-02T15:38:43.986Z,24.80
2022-08-02T15:41:10.790Z,25.00
2022-08-02T15:44:00.042Z,24.80
2022-08-02T15:46:25.624Z,24.70
2022-08-02T15:48:57.975Z,24.70
2022-08-02T15:51:26.657Z,24.70
2022-08-02T15:53:53.396Z,24.80
2022-08-02T15:56:23.932Z,25.00
2022-08-02T15:58:52.051Z,25.20
2022-08-02T16:01:23.943Z,25.10
2022-08-02T16:03:50.857Z,25.20
2022-08-02T16:06:17.653Z,25.30
2022-08-02T16:08:53.232Z,25.10
2022-08-02T16:11:21.299Z,24.70
2022-08-02T16:13:52.867Z,25.00
2022-08-02T16:16:25.352Z,25.10
2022-08-02T16:18:52.291Z,25.20
2022-08-02T16:21:19.443Z,25.40
2022-08-02T16:23:59.033Z,25.40
2022-08-02T16:26:30.896Z,25.50
2022-08-02T16:28:58.197Z,25.50
2022-08-02T16:31:24.975Z,25.60
2022-08-02T16:33:56.596Z,25.50
2022-08-02T16:36:24.365Z,25.40
2022-08-02T16:38:51.416Z,25.30
2022-08-02T16:41:18.217Z,25.20
2022-08-02T16:43:44.987Z,25.20
2022-08-02T16:46:11.774Z,25.30
2022-08-02T16:48:38.579Z,25.20
2022-08-02T16:51:05.408Z,25.10
2022-08-02T16:54:00.066Z,25.00
2022-08-02T16:56:28.423Z,25.00
2022-08-02T16:58:55.503Z,24.80
2022-08-02T17:01:27.529Z,24.80
2022-08-02T17:03:56.254Z,24.70
2022-08-02T17:06:26.285Z,24.70
2022-08-02T17:08:56.323Z,24.60
2022-08-02T17:11:24.625Z,24.60
2022-08-02T17:13:51.436Z,24.40
2022-08-02T17:16:20.830Z,24.20
2022-08-02T17:18:54.097Z,24.10
2022-08-02T17:21:21.296Z,24.00
2022-08-02T17:24:06.037Z,23.90
2022-08-02T17:26:35.263Z,23.70
2022-08-02T17:29:14.521Z,23.40
2022-08-02T17:32:02.606Z,23.30
2022-08-02T17:34:31.735Z,23.20
2022-08-02T17:36:58.440Z,22.80
2022-08-02T17:39:33.549Z,22.60
2022-08-02T17:42:15.396Z,22.70
2022-08-02T17:44:49.338Z,22.60
2022-08-02T17:47:16.291Z,22.40
2022-08-02T17:49:48.352Z,22.40
2022-08-02T17:52:50.345Z,22.40
2022-08-02T17:55:03.813Z,22.40
2022-08-02T17:57:56.929Z,22.10
2022-08-02T18:00:17.982Z,21.90
2022-08-02T18:02:52.920Z,21.90
2022-08-02T18:05:22.249Z,22.00
2022-08-02T18:07:52.066Z,21.60
2022-08-02T18:10:22.414Z,21.40
2022-08-02T18:12:50.088Z,21.30
2022-08-02T18:15:20.121Z,21.40
2022-08-02T18:17:47.145Z,21.30
2022-08-02T18:20:13.984Z,21.20
2022-08-02T18:22:42.962Z,21.30
2022-08-02T18:25:36.323Z,21.40
2022-08-02T18:27:58.693Z,21.50
2022-08-02T18:30:28.338Z,21.50
2022-08-02T18:33:58.268Z,21.10
2022-08-02T18:35:42.967Z,21.00
2022-08-02T18:38:11.805Z,21.10
2022-08-02T18:40:39.231Z,21.10
2022-08-02T18:43:07.695Z,21.00
2022-08-02T18:45:49.553Z,20.80
2022-08-02T18:48:22.009Z,20.70
2022-08-02T18:50:48.875Z,20.60
2022-08-02T18:53:28.180Z,20.60
2022-08-02T18:56:06.905Z,20.60
2022-08-02T18:58:35.155Z,20.80
2022-08-02T19:01:05.133Z,20.80
2022-08-02T19:03:49.208Z,20.80
2022-08-02T19:06:19.665Z,20.40
2022-08-02T19:09:04.891Z,20.20
2022-08-02T19:11:35.040Z,20.40
2022-08-02T19:14:02.246Z,20.40
2022-08-02T19:16:37.132Z,20.10
2022-08-02T19:19:05.427Z,19.90
2022-08-02T19:22:17.978Z,19.80
2022-08-02T19:24:19.258Z,19.80
2022-08-02T19:26:51.139Z,19.70
2022-08-02T19:29:42.241Z,19.50
2022-08-02T19:32:40.430Z,19.60
2022-08-02T19:34:56.248Z,19.80
2022-08-02T19:37:23.136Z,19.90
2022-08-02T19:39:50.535Z,19.90
2022-08-02T19:42:18.831Z,19.60
2022-08-02T19:44:46.197Z,19.20
2022-08-02T19:47:19.371Z,19.10
2022-08-02T19:49:48.744Z,19.10
2022-08-02T19:52:21.578Z,19.00
2022-08-02T19:54:55.740Z,19.10
2022-08-02T19:57:24.969Z,19.20
2022-08-02T19:59:52.693Z,19.40
2022-08-02T20:02:21.103Z,19.50
2022-08-02T20:04:50.486Z,19.50
2022-08-02T20:07:56.495Z,19.50
2022-08-02T20:10:10.730Z,19.50
2022-08-02T20:12:38.720Z,19.60
2022-08-02T20:15:14.391Z,19.50
2022-08-02T20:17:47.384Z,19.60
2022-08-02T20:20:31.989Z,19.60
2022-08-02T20:23:33.342Z,19.50
2022-08-02T20:26:02.333Z,19.20
2022-08-02T20:28:29.234Z,19.10
2022-08-02T20:30:56.001Z,19.10
2022-08-02T20:33:23.382Z,19.10
2022-08-02T20:35:53.330Z,19.20
2022-08-02T20:38:20.420Z,19.00
2022-08-02T20:40:54.679Z,18.90
2022-08-02T20:43:21.468Z,19.10
2022-08-02T20:45:57.952Z,19.00
2022-08-02T20:48:29.985Z,18.80
2022-08-02T20:50:56.929Z,18.60
2022-08-02T20:53:25.982Z,18.60
2022-08-02T20:55:56.837Z,18.70
2022-08-02T20:58:26.582Z,18.80
2022-08-02T21:00:56.730Z,18.80
2022-08-02T21:03:23.518Z,18.80
2022-08-02T21:05:55.921Z,18.90
2022-08-02T21:08:23.510Z,19.00
2022-08-02T21:10:52.501Z,18.60
2022-08-02T21:13:24.601Z,18.30
2022-08-02T21:15:56.560Z,18.20
2022-08-02T21:18:33.408Z,18.40
2022-08-02T21:21:03.206Z,18.40
2022-08-02T21:23:30.359Z,18.30
2022-08-02T21:26:03.435Z,18.20
2022-08-02T21:28:34.993Z,18.00
2022-08-02T21:31:10.734Z,18.00
2022-08-02T21:33:57.620Z,18.10
2022-08-02T21:36:30.711Z,18.30
2022-08-02T21:38:58.258Z,18.30
2022-08-02T21:41:24.956Z,18.40
2022-08-02T21:44:07.024Z,18.40
2022-08-02T21:46:33.763Z,18.40
2022-08-02T21:49:01.817Z,18.20
2022-08-02T21:54:17.877Z,18.00
2022-08-02T21:56:46.126Z,18.00
2022-08-02T21:59:15.844Z,17.90
2022-08-02T22:01:52.373Z,17.70
2022-08-02T22:04:20.755Z,17.80
2022-08-02T22:09:42.893Z,18.00
2022-08-02T22:15:01.001Z,17.60
2022-08-02T22:17:51.686Z,17.50
2022-08-02T22:20:19.956Z,17.50
2022-08-02T22:22:50.459Z,17.40
2022-08-02T22:25:26.569Z,17.50
2022-08-02T22:28:35.787Z,17.70
2022-08-02T22:30:56.595Z,17.50
2022-08-02T22:33:59.819Z,17.50
2022-08-02T22:36:29.228Z,17.50
2022-08-02T22:38:56.087Z,17.40
2022-08-02T22:41:22.941Z,17.40
2022-08-02T22:43:49.754Z,17.50
2022-08-02T22:46:16.804Z,17.50
2022-08-02T22:48:44.059Z,17.40
2022-08-02T22:51:11.097Z,17.10
2022-08-02T22:53:39.412Z,17.10
2022-08-02T22:56:06.128Z,17.20
2022-08-02T22:58:32.894Z,17.10
2022-08-02T22:59:11.087Z,18.00
2022-08-02T22:59:11.781Z,17.90
2022-08-02T23:01:00.110Z,17.10
2022-08-02T23:03:26.989Z,17.20
2022-08-02T23:05:53.824Z,17.10
2022-08-02T23:08:20.679Z,16.80
2022-08-02T23:10:47.713Z,16.80
2022-08-02T23:13:14.460Z,17.00
2022-08-02T23:16:01.766Z,16.80
2022-08-02T23:18:47.172Z,16.90
2022-08-02T23:21:13.922Z,16.90
2022-08-02T23:24:01.687Z,16.90
2022-08-02T23:26:28.580Z,16.90
2022-08-02T23:28:55.436Z,16.80
2022-08-02T23:31:32.377Z,16.60
2022-08-02T23:34:04.136Z,16.60
2022-08-02T23:36:31.456Z,16.80
2022-08-02T23:38:59.779Z,16.90
2022-08-02T23:41:26.991Z,16.90
2022-08-02T23:44:12.415Z,16.80
2022-08-02T23:46:46.743Z,16.70
2022-08-02T23:49:13.831Z,16.80
2022-08-02T23:51:40.598Z,16.70
2022-08-02T23:54:07.348Z,16.70
2022-08-02T23:56:34.135Z,16.80
2022-08-02T23:59:00.878Z,16.70
